Sunday, November 23, 2014, 8:04 AM EST

KPHF, Williamsburg International Airport

Location: Newport News, VA, United States Lat: 37.133
Local Time: 8:04 AM EST (13:04 GMT) Lon: -76.5
Time Zone: US/Eastern Elev: 42 ft

Show me the last for .
Show Decoded

2014-11-23 06:54 METAR KPHF 231154Z 00000KT 10SM CLR 03/M01 A3030 RMK AO2 RAB15E27 SLP259 P0000
                 60000 T00281011 10044 21006 55000 $ =
2014-11-23 05:54 METAR KPHF 231054Z 00000KT 10SM CLR 04/M01 A3029 RMK AO2 RAE06 SLP258 P0000
                 T00441006 $ =
2014-11-23 04:54 METAR KPHF 230954Z 20003KT 10SM -RA CLR 02/M02 A3029 RMK AO2 RAB07E21B52 SLP258
                 P0000 T00171022 $ =
2014-11-23 03:54 METAR KPHF 230854Z 00000KT 10SM CLR 01/M03 A3030 RMK AO2 SLP259 T00111028 58006
                 $ =
2014-11-23 02:54 METAR KPHF 230754Z 00000KT 10SM CLR 01/M03 A3031 RMK AO2 SLP264 T00111033 $ =
2014-11-23 01:54 METAR KPHF 230654Z 00000KT 9SM CLR 02/M03 A3031 RMK AO2 SLP264 T00221028 $ =
2014-11-23 00:54 METAR KPHF 230554Z 00000KT 10SM CLR 02/M04 A3031 RMK AO2 SLP265 60000 T00221039
                 10044 20000 58017 $ =
2014-11-22 23:54 METAR KPHF 230454Z 00000KT 10SM CLR 03/M04 A3033 RMK AO2 SLP269 T00281044
                 401171050 $ =
2014-11-22 22:54 METAR KPHF 230354Z 00000KT 8SM CLR 03/M04 A3035 RMK AO2 SLP278 T00281044 $ =
2014-11-22 21:54 METAR KPHF 230254Z AUTO 00000KT 10SM CLR 02/M04 A3036 =
2014-11-22 20:54 METAR KPHF 230154Z AUTO 00000KT 10SM CLR 02/M04 A3036 RMK AO2 RAB0056E06 SLP280
                 P0000 T00171039 TSNO $ =
2014-11-22 19:54 METAR KPHF 230054Z AUTO 00000KT 10SM CLR 02/M04 A3035 =
2014-11-22 18:54 METAR KPHF 222354Z AUTO 00000KT 10SM -RA CLR 02/M04 A3037 RMK AO2 RAE2259B44
                 SLP283 P0000 60000 T00221039 10117 20022 58013 TSNO $ =
2014-11-22 17:54 METAR KPHF 222254Z AUTO 21003KT 10SM -RA CLR 06/M04 A3038 RMK AO2 RAB38 SLP288
                 P0000 T00611044 TSNO $ =
2014-11-22 16:54 METAR KPHF 222154Z AUTO 23004KT 10SM CLR 08/M06 A3039 RMK AO2 RAB27E37 SLP292
                 P0000 T00831061 TSNO $ =
2014-11-22 15:54 METAR KPHF 222054Z 22007KT 10SM CLR 11/M07 A3040 RMK AO2 SLP296 T01061072 56021
                 $ =
2014-11-22 14:54 METAR KPHF 221954Z 22012KT 10SM CLR 11/M07 A3041 =
2014-11-22 13:54 METAR KPHF 221854Z 20010KT 10SM CLR 11/M08 A3043 RMK AO2 SLP304 T01111078 $ =
2014-11-22 12:54 METAR KPHF 221754Z 21009KT 10SM CLR 10/M08 A3047 RMK AO2 SLP317 60000 T01001078
                 10106 21044 58037 $ =
2014-11-22 11:54 METAR KPHF 221654Z 24010KT 10SM CLR 09/M08 A3051 RMK AO2 SLP333 T00941078 $ =
2014-11-22 10:54 METAR KPHF 221554Z 20011KT 10SM CLR 08/M08 A3055 RMK AO2 SLP345 T00781078 $ =
2014-11-22 09:54 METAR KPHF 221454Z 23008KT 10SM CLR 07/M05 A3058 RMK AO2 SLP354 60000 T00671050
                 50004 $ =
2014-11-22 08:54 METAR KPHF 221354Z 24006KT 8SM CLR 04/M03 A3058 RMK AO2 SLP354 T00441028 $ =

Support USWX by starting your Amazon purchase here.